sensor_id;sensor_type;location;lat;lon;timestamp;P1;durP1;ratioP1;P2;durP2;ratioP2
21741;SDS011;11033;47.490;11.116;2022-08-19T00:01:53;6.65;;;6.05;;
21741;SDS011;11033;47.490;11.116;2022-08-19T00:04:21;7.03;;;6.32;;
21741;SDS011;11033;47.490;11.116;2022-08-19T00:06:49;6.57;;;5.80;;
21741;SDS011;11033;47.490;11.116;2022-08-19T00:09:16;6.40;;;5.80;;
21741;SDS011;11033;47.490;11.116;2022-08-19T00:11:43;6.28;;;5.55;;
21741;SDS011;11033;47.490;11.116;2022-08-19T00:14:11;6.28;;;5.65;;
21741;SDS011;11033;47.490;11.116;2022-08-19T00:16:39;5.25;;;4.78;;
21741;SDS011;11033;47.490;11.116;2022-08-19T00:19:06;4.78;;;4.38;;
21741;SDS011;11033;47.490;11.116;2022-08-19T00:21:32;4.88;;;4.47;;
21741;SDS011;11033;47.490;11.116;2022-08-19T00:23:57;4.87;;;4.47;;
21741;SDS011;11033;47.490;11.116;2022-08-19T00:26:23;4.32;;;3.92;;
21741;SDS011;11033;47.490;11.116;2022-08-19T00:28:49;5.10;;;4.60;;
21741;SDS011;11033;47.490;11.116;2022-08-19T00:31:15;4.97;;;4.47;;
21741;SDS011;11033;47.490;11.116;2022-08-19T00:33:41;4.78;;;4.30;;
21741;SDS011;11033;47.490;11.116;2022-08-19T00:36:07;4.75;;;4.35;;
21741;SDS011;11033;47.490;11.116;2022-08-19T00:38:36;5.22;;;4.82;;
21741;SDS011;11033;47.490;11.116;2022-08-19T00:41:04;4.40;;;4.00;;
21741;SDS011;11033;47.490;11.116;2022-08-19T00:43:30;4.75;;;4.25;;
21741;SDS011;11033;47.490;11.116;2022-08-19T00:45:55;4.57;;;4.18;;
21741;SDS011;11033;47.490;11.116;2022-08-19T00:48:21;4.47;;;4.07;;
21741;SDS011;11033;47.490;11.116;2022-08-19T00:50:48;4.55;;;4.15;;
21741;SDS011;11033;47.490;11.116;2022-08-19T00:53:16;4.80;;;4.40;;
21741;SDS011;11033;47.490;11.116;2022-08-19T00:55:45;4.20;;;3.85;;
21741;SDS011;11033;47.490;11.116;2022-08-19T00:58:14;5.78;;;4.72;;
21741;SDS011;11033;47.490;11.116;2022-08-19T01:00:41;5.57;;;5.05;;
21741;SDS011;11033;47.490;11.116;2022-08-19T01:03:08;5.20;;;4.80;;
21741;SDS011;11033;47.490;11.116;2022-08-19T01:12:18;5.80;;;3.92;;
21741;SDS011;11033;47.490;11.116;2022-08-19T01:14:45;4.70;;;4.30;;
21741;SDS011;11033;47.490;11.116;2022-08-19T01:17:11;4.50;;;4.10;;
21741;SDS011;11033;47.490;11.116;2022-08-19T01:19:40;6.32;;;4.43;;
21741;SDS011;11033;47.490;11.116;2022-08-19T01:22:18;5.55;;;5.05;;
21741;SDS011;11033;47.490;11.116;2022-08-19T01:24:53;6.45;;;4.28;;
21741;SDS011;11033;47.490;11.116;2022-08-19T01:27:18;5.72;;;4.80;;
21741;SDS011;11033;47.490;11.116;2022-08-19T01:29:44;5.68;;;5.15;;
21741;SDS011;11033;47.490;11.116;2022-08-19T01:32:11;4.82;;;4.43;;
21741;SDS011;11033;47.490;11.116;2022-08-19T01:34:39;5.88;;;4.72;;
21741;SDS011;11033;47.490;11.116;2022-08-19T01:37:09;5.00;;;4.50;;
21741;SDS011;11033;47.490;11.116;2022-08-19T01:39:36;5.45;;;4.95;;
21741;SDS011;11033;47.490;11.116;2022-08-19T01:42:03;5.40;;;4.90;;
21741;SDS011;11033;47.490;11.116;2022-08-19T01:44:29;4.75;;;4.35;;
21741;SDS011;11033;47.490;11.116;2022-08-19T01:46:55;5.13;;;4.63;;
21741;SDS011;11033;47.490;11.116;2022-08-19T01:49:21;5.35;;;4.85;;
21741;SDS011;11033;47.490;11.116;2022-08-19T01:51:48;4.38;;;4.07;;
21741;SDS011;11033;47.490;11.116;2022-08-19T01:54:15;5.60;;;5.10;;
21741;SDS011;11033;47.490;11.116;2022-08-19T01:56:41;4.70;;;4.30;;
21741;SDS011;11033;47.490;11.116;2022-08-19T01:59:10;6.63;;;6.03;;
21741;SDS011;11033;47.490;11.116;2022-08-19T02:01:39;5.20;;;4.38;;
21741;SDS011;11033;47.490;11.116;2022-08-19T02:04:05;5.30;;;4.65;;
21741;SDS011;11033;47.490;11.116;2022-08-19T02:06:30;4.47;;;4.10;;
21741;SDS011;11033;47.490;11.116;2022-08-19T02:08:56;4.32;;;3.92;;
21741;SDS011;11033;47.490;11.116;2022-08-19T02:11:23;5.13;;;4.70;;
21741;SDS011;11033;47.490;11.116;2022-08-19T02:13:51;5.82;;;5.32;;
21741;SDS011;11033;47.490;11.116;2022-08-19T02:16:17;4.80;;;4.40;;
21741;SDS011;11033;47.490;11.116;2022-08-19T02:18:44;4.50;;;4.10;;
21741;SDS011;11033;47.490;11.116;2022-08-19T02:21:10;4.53;;;4.13;;
21741;SDS011;11033;47.490;11.116;2022-08-19T02:23:35;6.10;;;5.53;;
21741;SDS011;11033;47.490;11.116;2022-08-19T02:26:01;5.93;;;4.47;;
21741;SDS011;11033;47.490;11.116;2022-08-19T02:28:26;7.80;;;5.53;;
21741;SDS011;11033;47.490;11.116;2022-08-19T02:30:51;6.90;;;6.20;;
21741;SDS011;11033;47.490;11.116;2022-08-19T02:33:17;5.70;;;5.20;;
21741;SDS011;11033;47.490;11.116;2022-08-19T02:35:43;6.28;;;4.70;;
21741;SDS011;11033;47.490;11.116;2022-08-19T02:38:09;4.55;;;4.18;;
21741;SDS011;11033;47.490;11.116;2022-08-19T02:40:55;5.22;;;4.50;;
21741;SDS011;11033;47.490;11.116;2022-08-19T02:43:23;10.07;;;7.90;;
21741;SDS011;11033;47.490;11.116;2022-08-19T02:45:49;8.15;;;7.45;;
21741;SDS011;11033;47.490;11.116;2022-08-19T02:48:17;8.00;;;6.65;;
21741;SDS011;11033;47.490;11.116;2022-08-19T02:50:44;6.78;;;6.13;;
21741;SDS011;11033;47.490;11.116;2022-08-19T02:53:10;6.63;;;5.75;;
21741;SDS011;11033;47.490;11.116;2022-08-19T02:55:35;6.28;;;5.63;;
21741;SDS011;11033;47.490;11.116;2022-08-19T02:58:08;7.40;;;6.70;;
21741;SDS011;11033;47.490;11.116;2022-08-19T03:00:34;5.60;;;5.13;;
21741;SDS011;11033;47.490;11.116;2022-08-19T03:02:59;7.13;;;6.05;;
21741;SDS011;11033;47.490;11.116;2022-08-19T03:05:25;8.10;;;6.18;;
21741;SDS011;11033;47.490;11.116;2022-08-19T03:07:51;8.10;;;7.20;;
21741;SDS011;11033;47.490;11.116;2022-08-19T03:10:17;7.80;;;7.03;;
21741;SDS011;11033;47.490;11.116;2022-08-19T03:12:42;12.15;;;10.88;;
21741;SDS011;11033;47.490;11.116;2022-08-19T03:15:07;8.70;;;7.83;;
21741;SDS011;11033;47.490;11.116;2022-08-19T03:17:34;10.07;;;9.07;;
21741;SDS011;11033;47.490;11.116;2022-08-19T03:19:59;10.65;;;9.57;;
21741;SDS011;11033;47.490;11.116;2022-08-19T03:22:25;11.13;;;9.18;;
21741;SDS011;11033;47.490;11.116;2022-08-19T03:24:51;10.70;;;9.60;;
21741;SDS011;11033;47.490;11.116;2022-08-19T03:27:16;10.13;;;9.20;;
21741;SDS011;11033;47.490;11.116;2022-08-19T03:29:42;9.10;;;8.15;;
21741;SDS011;11033;47.490;11.116;2022-08-19T03:32:08;9.93;;;8.93;;
21741;SDS011;11033;47.490;11.116;2022-08-19T03:34:34;10.27;;;8.35;;
21741;SDS011;11033;47.490;11.116;2022-08-19T03:37:03;9.95;;;8.98;;
21741;SDS011;11033;47.490;11.116;2022-08-19T03:41:57;10.18;;;9.13;;
21741;SDS011;11033;47.490;11.116;2022-08-19T03:44:25;9.27;;;8.38;;
21741;SDS011;11033;47.490;11.116;2022-08-19T03:46:51;9.40;;;8.50;;
21741;SDS011;11033;47.490;11.116;2022-08-19T03:49:20;8.35;;;7.65;;
21741;SDS011;11033;47.490;11.116;2022-08-19T03:51:47;8.77;;;7.95;;
21741;SDS011;11033;47.490;11.116;2022-08-19T03:54:14;10.32;;;9.13;;
21741;SDS011;11033;47.490;11.116;2022-08-19T03:56:41;9.20;;;8.30;;
21741;SDS011;11033;47.490;11.116;2022-08-19T03:59:09;11.80;;;9.98;;
21741;SDS011;11033;47.490;11.116;2022-08-19T04:01:38;10.93;;;9.90;;
21741;SDS011;11033;47.490;11.116;2022-08-19T04:04:03;9.95;;;9.02;;
21741;SDS011;11033;47.490;11.116;2022-08-19T04:06:30;11.05;;;9.95;;
21741;SDS011;11033;47.490;11.116;2022-08-19T04:08:57;10.30;;;9.30;;
21741;SDS011;11033;47.490;11.116;2022-08-19T04:11:27;10.65;;;8.63;;
21741;SDS011;11033;47.490;11.116;2022-08-19T04:13:55;10.75;;;9.75;;
21741;SDS011;11033;47.490;11.116;2022-08-19T04:16:21;11.45;;;9.65;;
21741;SDS011;11033;47.490;11.116;2022-08-19T04:18:48;9.23;;;7.65;;
21741;SDS011;11033;47.490;11.116;2022-08-19T04:21:15;8.32;;;7.53;;
21741;SDS011;11033;47.490;11.116;2022-08-19T04:23:42;9.63;;;8.63;;
21741;SDS011;11033;47.490;11.116;2022-08-19T04:26:12;9.80;;;8.85;;
21741;SDS011;11033;47.490;11.116;2022-08-19T04:31:04;9.80;;;8.70;;
21741;SDS011;11033;47.490;11.116;2022-08-19T04:33:29;10.02;;;9.02;;
21741;SDS011;11033;47.490;11.116;2022-08-19T04:35:55;8.30;;;7.50;;
21741;SDS011;11033;47.490;11.116;2022-08-19T04:38:23;7.53;;;6.78;;
21741;SDS011;11033;47.490;11.116;2022-08-19T04:40:49;8.73;;;7.93;;
21741;SDS011;11033;47.490;11.116;2022-08-19T04:43:35;8.43;;;7.35;;
21741;SDS011;11033;47.490;11.116;2022-08-19T04:46:09;8.38;;;7.57;;
21741;SDS011;11033;47.490;11.116;2022-08-19T04:48:36;7.80;;;7.00;;
21741;SDS011;11033;47.490;11.116;2022-08-19T04:51:05;7.82;;;7.03;;
21741;SDS011;11033;47.490;11.116;2022-08-19T04:53:33;8.07;;;7.38;;
21741;SDS011;11033;47.490;11.116;2022-08-19T04:56:04;8.27;;;7.57;;
21741;SDS011;11033;47.490;11.116;2022-08-19T04:58:38;8.43;;;7.50;;
21741;SDS011;11033;47.490;11.116;2022-08-19T05:01:07;7.80;;;7.10;;
21741;SDS011;11033;47.490;11.116;2022-08-19T05:03:35;7.35;;;6.75;;
21741;SDS011;11033;47.490;11.116;2022-08-19T05:06:04;7.78;;;7.07;;
21741;SDS011;11033;47.490;11.116;2022-08-19T05:08:33;8.35;;;7.55;;
21741;SDS011;11033;47.490;11.116;2022-08-19T05:10:59;7.97;;;7.28;;
21741;SDS011;11033;47.490;11.116;2022-08-19T05:13:24;8.20;;;7.50;;
21741;SDS011;11033;47.490;11.116;2022-08-19T05:15:53;8.55;;;7.75;;
21741;SDS011;11033;47.490;11.116;2022-08-19T05:18:21;6.93;;;6.28;;
21741;SDS011;11033;47.490;11.116;2022-08-19T05:21:06;8.00;;;7.20;;
21741;SDS011;11033;47.490;11.116;2022-08-19T05:23:51;9.57;;;8.60;;
21741;SDS011;11033;47.490;11.116;2022-08-19T05:26:17;8.27;;;7.47;;
21741;SDS011;11033;47.490;11.116;2022-08-19T05:28:42;7.60;;;6.77;;
21741;SDS011;11033;47.490;11.116;2022-08-19T05:31:07;8.53;;;7.63;;
21741;SDS011;11033;47.490;11.116;2022-08-19T05:33:32;8.00;;;6.80;;
21741;SDS011;11033;47.490;11.116;2022-08-19T05:35:58;9.35;;;7.82;;
21741;SDS011;11033;47.490;11.116;2022-08-19T05:38:23;8.48;;;6.93;;
21741;SDS011;11033;47.490;11.116;2022-08-19T05:40:49;7.13;;;6.45;;
21741;SDS011;11033;47.490;11.116;2022-08-19T05:43:15;7.40;;;6.67;;
21741;SDS011;11033;47.490;11.116;2022-08-19T05:45:41;7.82;;;7.13;;
21741;SDS011;11033;47.490;11.116;2022-08-19T05:48:07;7.00;;;6.32;;
21741;SDS011;11033;47.490;11.116;2022-08-19T05:50:36;7.55;;;6.93;;
21741;SDS011;11033;47.490;11.116;2022-08-19T05:53:05;5.70;;;5.20;;
21741;SDS011;11033;47.490;11.116;2022-08-19T05:55:31;6.95;;;6.35;;
21741;SDS011;11033;47.490;11.116;2022-08-19T05:57:57;7.78;;;6.35;;
21741;SDS011;11033;47.490;11.116;2022-08-19T06:00:22;7.63;;;6.50;;
21741;SDS011;11033;47.490;11.116;2022-08-19T06:02:48;7.78;;;6.75;;
21741;SDS011;11033;47.490;11.116;2022-08-19T06:05:13;6.85;;;6.15;;
21741;SDS011;11033;47.490;11.116;2022-08-19T06:07:39;7.38;;;6.50;;
21741;SDS011;11033;47.490;11.116;2022-08-19T06:10:06;6.32;;;5.72;;
21741;SDS011;11033;47.490;11.116;2022-08-19T06:12:34;8.43;;;6.95;;
21741;SDS011;11033;47.490;11.116;2022-08-19T06:15:01;7.95;;;7.15;;
21741;SDS011;11033;47.490;11.116;2022-08-19T06:17:31;8.50;;;7.55;;
21741;SDS011;11033;47.490;11.116;2022-08-19T06:19:59;9.32;;;6.30;;
21741;SDS011;11033;47.490;11.116;2022-08-19T06:22:25;9.05;;;7.03;;
21741;SDS011;11033;47.490;11.116;2022-08-19T06:24:50;8.20;;;7.28;;
21741;SDS011;11033;47.490;11.116;2022-08-19T06:27:17;8.20;;;7.38;;
21741;SDS011;11033;47.490;11.116;2022-08-19T06:29:43;12.98;;;8.93;;
21741;SDS011;11033;47.490;11.116;2022-08-19T06:32:08;8.70;;;7.80;;
21741;SDS011;11033;47.490;11.116;2022-08-19T06:34:34;8.20;;;7.40;;
21741;SDS011;11033;47.490;11.116;2022-08-19T06:37:00;9.32;;;8.43;;
21741;SDS011;11033;47.490;11.116;2022-08-19T06:39:27;9.45;;;8.50;;
21741;SDS011;11033;47.490;11.116;2022-08-19T06:41:56;9.30;;;8.40;;
21741;SDS011;11033;47.490;11.116;2022-08-19T06:44:24;9.80;;;8.60;;
21741;SDS011;11033;47.490;11.116;2022-08-19T06:46:53;8.55;;;7.65;;
21741;SDS011;11033;47.490;11.116;2022-08-19T06:49:19;9.10;;;8.20;;
21741;SDS011;11033;47.490;11.116;2022-08-19T06:51:46;7.85;;;7.05;;
21741;SDS011;11033;47.490;11.116;2022-08-19T06:54:13;8.52;;;7.72;;
21741;SDS011;11033;47.490;11.116;2022-08-19T06:56:39;8.23;;;6.93;;
21741;SDS011;11033;47.490;11.116;2022-08-19T06:59:10;7.07;;;6.47;;
21741;SDS011;11033;47.490;11.116;2022-08-19T07:01:37;7.05;;;6.38;;
21741;SDS011;11033;47.490;11.116;2022-08-19T07:04:05;7.03;;;6.43;;
21741;SDS011;11033;47.490;11.116;2022-08-19T07:06:33;6.70;;;5.82;;
21741;SDS011;11033;47.490;11.116;2022-08-19T07:08:59;6.35;;;5.78;;
21741;SDS011;11033;47.490;11.116;2022-08-19T07:11:24;6.82;;;5.82;;
21741;SDS011;11033;47.490;11.116;2022-08-19T07:13:49;6.60;;;6.00;;
21741;SDS011;11033;47.490;11.116;2022-08-19T07:16:17;6.60;;;6.00;;
21741;SDS011;11033;47.490;11.116;2022-08-19T07:18:44;6.53;;;5.93;;
21741;SDS011;11033;47.490;11.116;2022-08-19T07:21:13;6.35;;;5.85;;
21741;SDS011;11033;47.490;11.116;2022-08-19T07:23:44;6.43;;;5.82;;
21741;SDS011;11033;47.490;11.116;2022-08-19T07:26:12;6.22;;;5.72;;
21741;SDS011;11033;47.490;11.116;2022-08-19T07:28:46;7.82;;;5.40;;
21741;SDS011;11033;47.490;11.116;2022-08-19T07:31:13;6.13;;;5.10;;
21741;SDS011;11033;47.490;11.116;2022-08-19T07:33:43;5.68;;;5.18;;
21741;SDS011;11033;47.490;11.116;2022-08-19T07:36:10;7.15;;;5.32;;
21741;SDS011;11033;47.490;11.116;2022-08-19T07:38:38;5.20;;;4.80;;
21741;SDS011;11033;47.490;11.116;2022-08-19T07:41:09;4.85;;;4.30;;
21741;SDS011;11033;47.490;11.116;2022-08-19T07:43:37;4.90;;;4.30;;
21741;SDS011;11033;47.490;11.116;2022-08-19T07:46:02;5.63;;;5.13;;
21741;SDS011;11033;47.490;11.116;2022-08-19T07:48:28;5.32;;;4.82;;
21741;SDS011;11033;47.490;11.116;2022-08-19T07:50:57;6.38;;;5.38;;
21741;SDS011;11033;47.490;11.116;2022-08-19T07:53:27;5.65;;;4.72;;
21741;SDS011;11033;47.490;11.116;2022-08-19T07:55:53;5.00;;;4.40;;
21741;SDS011;11033;47.490;11.116;2022-08-19T07:58:19;6.07;;;5.47;;
21741;SDS011;11033;47.490;11.116;2022-08-19T08:00:47;6.15;;;5.10;;
21741;SDS011;11033;47.490;11.116;2022-08-19T08:03:15;6.28;;;5.70;;
21741;SDS011;11033;47.490;11.116;2022-08-19T08:05:43;5.72;;;5.22;;
21741;SDS011;11033;47.490;11.116;2022-08-19T08:08:27;5.20;;;4.70;;
21741;SDS011;11033;47.490;11.116;2022-08-19T08:11:12;6.97;;;5.38;;
21741;SDS011;11033;47.490;11.116;2022-08-19T08:13:37;5.50;;;5.00;;
21741;SDS011;11033;47.490;11.116;2022-08-19T08:16:03;6.15;;;5.55;;
21741;SDS011;11033;47.490;11.116;2022-08-19T08:18:28;8.07;;;5.97;;
21741;SDS011;11033;47.490;11.116;2022-08-19T08:20:55;7.40;;;6.70;;
21741;SDS011;11033;47.490;11.116;2022-08-19T08:23:21;6.45;;;5.07;;
21741;SDS011;11033;47.490;11.116;2022-08-19T08:25:50;6.18;;;4.72;;
21741;SDS011;11033;47.490;11.116;2022-08-19T08:28:17;11.20;;;7.22;;
21741;SDS011;11033;47.490;11.116;2022-08-19T08:30:43;5.78;;;5.10;;
21741;SDS011;11033;47.490;11.116;2022-08-19T08:33:10;7.43;;;5.82;;
21741;SDS011;11033;47.490;11.116;2022-08-19T08:35:36;9.07;;;6.55;;
21741;SDS011;11033;47.490;11.116;2022-08-19T08:38:02;7.97;;;7.13;;
21741;SDS011;11033;47.490;11.116;2022-08-19T08:45:47;7.22;;;6.47;;
21741;SDS011;11033;47.490;11.116;2022-08-19T08:48:21;6.70;;;6.00;;
21741;SDS011;11033;47.490;11.116;2022-08-19T08:50:52;6.35;;;5.85;;
21741;SDS011;11033;47.490;11.116;2022-08-19T08:53:21;8.57;;;6.70;;
21741;SDS011;11033;47.490;11.116;2022-08-19T08:55:48;8.10;;;7.30;;
21741;SDS011;11033;47.490;11.116;2022-08-19T08:58:14;7.72;;;6.47;;
21741;SDS011;11033;47.490;11.116;2022-08-19T09:00:46;7.00;;;6.32;;
21741;SDS011;11033;47.490;11.116;2022-08-19T09:03:20;7.32;;;6.65;;
21741;SDS011;11033;47.490;11.116;2022-08-19T09:08:48;7.38;;;6.65;;
21741;SDS011;11033;47.490;11.116;2022-08-19T09:11:30;9.82;;;6.80;;
21741;SDS011;11033;47.490;11.116;2022-08-19T09:14:29;7.40;;;6.68;;
21741;SDS011;11033;47.490;11.116;2022-08-19T09:16:53;7.10;;;6.43;;
21741;SDS011;11033;47.490;11.116;2022-08-19T09:19:18;7.67;;;6.90;;
21741;SDS011;11033;47.490;11.116;2022-08-19T09:21:44;7.28;;;6.60;;
21741;SDS011;11033;47.490;11.116;2022-08-19T09:24:10;7.47;;;6.78;;
21741;SDS011;11033;47.490;11.116;2022-08-19T09:26:35;8.57;;;7.50;;
21741;SDS011;11033;47.490;11.116;2022-08-19T09:29:01;7.47;;;6.75;;
21741;SDS011;11033;47.490;11.116;2022-08-19T09:31:30;7.30;;;6.60;;
21741;SDS011;11033;47.490;11.116;2022-08-19T09:33:57;7.07;;;6.47;;
21741;SDS011;11033;47.490;11.116;2022-08-19T09:36:24;6.47;;;5.88;;
21741;SDS011;11033;47.490;11.116;2022-08-19T09:38:53;6.10;;;5.57;;
21741;SDS011;11033;47.490;11.116;2022-08-19T09:41:21;4.68;;;4.28;;
21741;SDS011;11033;47.490;11.116;2022-08-19T09:43:49;5.68;;;5.18;;
21741;SDS011;11033;47.490;11.116;2022-08-19T09:46:20;7.18;;;6.05;;
21741;SDS011;11033;47.490;11.116;2022-08-19T09:48:47;5.80;;;4.97;;
21741;SDS011;11033;47.490;11.116;2022-08-19T09:51:15;5.60;;;5.10;;
21741;SDS011;11033;47.490;11.116;2022-08-19T09:53:51;7.88;;;5.30;;
21741;SDS011;11033;47.490;11.116;2022-08-19T09:56:19;4.47;;;4.07;;
21741;SDS011;11033;47.490;11.116;2022-08-19T09:58:45;4.38;;;3.97;;
21741;SDS011;11033;47.490;11.116;2022-08-19T10:01:16;4.38;;;3.90;;
21741;SDS011;11033;47.490;11.116;2022-08-19T10:03:46;4.30;;;3.92;;
21741;SDS011;11033;47.490;11.116;2022-08-19T10:06:14;4.97;;;4.20;;
21741;SDS011;11033;47.490;11.116;2022-08-19T10:08:39;4.72;;;4.32;;
21741;SDS011;11033;47.490;11.116;2022-08-19T10:11:04;4.00;;;3.60;;
21741;SDS011;11033;47.490;11.116;2022-08-19T10:13:31;3.88;;;3.28;;
21741;SDS011;11033;47.490;11.116;2022-08-19T10:16:03;3.60;;;3.30;;
21741;SDS011;11033;47.490;11.116;2022-08-19T10:18:32;3.88;;;3.58;;
21741;SDS011;11033;47.490;11.116;2022-08-19T10:21:03;3.25;;;3.03;;
21741;SDS011;11033;47.490;11.116;2022-08-19T10:23:35;3.20;;;2.90;;
21741;SDS011;11033;47.490;11.116;2022-08-19T10:26:02;3.22;;;2.97;;
21741;SDS011;11033;47.490;11.116;2022-08-19T10:28:30;3.58;;;3.28;;
21741;SDS011;11033;47.490;11.116;2022-08-19T10:30:56;2.70;;;2.50;;
21741;SDS011;11033;47.490;11.116;2022-08-19T10:33:21;3.50;;;3.20;;
21741;SDS011;11033;47.490;11.116;2022-08-19T10:35:47;2.80;;;2.60;;
21741;SDS011;11033;47.490;11.116;2022-08-19T10:38:12;2.80;;;2.60;;
21741;SDS011;11033;47.490;11.116;2022-08-19T10:40:37;3.83;;;2.73;;
21741;SDS011;11033;47.490;11.116;2022-08-19T10:43:03;2.97;;;2.78;;
21741;SDS011;11033;47.490;11.116;2022-08-19T10:45:28;2.30;;;2.17;;
21741;SDS011;11033;47.490;11.116;2022-08-19T10:47:53;2.10;;;2.00;;
21741;SDS011;11033;47.490;11.116;2022-08-19T10:50:19;2.03;;;1.92;;
21741;SDS011;11033;47.490;11.116;2022-08-19T10:53:04;2.30;;;2.20;;
21741;SDS011;11033;47.490;11.116;2022-08-19T10:55:33;2.33;;;1.93;;
21741;SDS011;11033;47.490;11.116;2022-08-19T10:58:18;1.77;;;1.67;;
21741;SDS011;11033;47.490;11.116;2022-08-19T11:00:55;2.75;;;1.88;;
21741;SDS011;11033;47.490;11.116;2022-08-19T11:03:22;1.55;;;1.45;;
21741;SDS011;11033;47.490;11.116;2022-08-19T11:05:57;1.77;;;1.67;;
21741;SDS011;11033;47.490;11.116;2022-08-19T11:08:27;2.00;;;1.70;;
21741;SDS011;11033;47.490;11.116;2022-08-19T11:10:53;1.80;;;1.58;;
21741;SDS011;11033;47.490;11.116;2022-08-19T11:13:24;1.77;;;1.67;;
21741;SDS011;11033;47.490;11.116;2022-08-19T11:15:56;1.65;;;1.55;;
21741;SDS011;11033;47.490;11.116;2022-08-19T11:18:23;1.83;;;1.73;;
21741;SDS011;11033;47.490;11.116;2022-08-19T11:20:49;1.90;;;1.80;;
21741;SDS011;11033;47.490;11.116;2022-08-19T11:23:14;1.57;;;1.47;;
21741;SDS011;11033;47.490;11.116;2022-08-19T11:25:39;1.43;;;1.33;;
21741;SDS011;11033;47.490;11.116;2022-08-19T11:28:04;1.40;;;1.30;;
21741;SDS011;11033;47.490;11.116;2022-08-19T11:30:30;1.00;;;1.00;;
21741;SDS011;11033;47.490;11.116;2022-08-19T11:32:55;1.27;;;1.10;;
21741;SDS011;11033;47.490;11.116;2022-08-19T11:35:20;1.30;;;1.20;;
21741;SDS011;11033;47.490;11.116;2022-08-19T11:37:48;1.85;;;1.48;;
21741;SDS011;11033;47.490;11.116;2022-08-19T11:40:13;1.33;;;1.23;;
21741;SDS011;11033;47.490;11.116;2022-08-19T11:42:39;1.35;;;1.20;;
21741;SDS011;11033;47.490;11.116;2022-08-19T11:45:20;1.23;;;1.17;;
21741;SDS011;11033;47.490;11.116;2022-08-19T11:47:45;1.33;;;1.23;;
21741;SDS011;11033;47.490;11.116;2022-08-19T11:50:12;0.98;;;0.98;;
21741;SDS011;11033;47.490;11.116;2022-08-19T11:52:37;1.00;;;1.00;;
21741;SDS011;11033;47.490;11.116;2022-08-19T11:55:03;1.25;;;1.15;;
21741;SDS011;11033;47.490;11.116;2022-08-19T11:57:29;1.08;;;1.02;;
21741;SDS011;11033;47.490;11.116;2022-08-19T11:59:54;1.37;;;0.90;;
21741;SDS011;11033;47.490;11.116;2022-08-19T12:02:20;1.10;;;1.10;;
21741;SDS011;11033;47.490;11.116;2022-08-19T12:04:46;1.20;;;1.20;;
21741;SDS011;11033;47.490;11.116;2022-08-19T12:07:12;1.27;;;1.20;;
21741;SDS011;11033;47.490;11.116;2022-08-19T12:09:37;1.08;;;1.08;;
21741;SDS011;11033;47.490;11.116;2022-08-19T12:12:04;1.40;;;1.23;;
21741;SDS011;11033;47.490;11.116;2022-08-19T12:14:30;1.60;;;1.50;;
21741;SDS011;11033;47.490;11.116;2022-08-19T12:16:56;2.35;;;2.25;;
21741;SDS011;11033;47.490;11.116;2022-08-19T12:19:22;2.05;;;1.95;;
21741;SDS011;11033;47.490;11.116;2022-08-19T12:21:47;2.13;;;1.92;;
21741;SDS011;11033;47.490;11.116;2022-08-19T12:24:12;2.05;;;1.95;;
21741;SDS011;11033;47.490;11.116;2022-08-19T12:26:38;2.83;;;2.58;;
21741;SDS011;11033;47.490;11.116;2022-08-19T12:29:03;3.27;;;2.53;;
21741;SDS011;11033;47.490;11.116;2022-08-19T12:31:29;2.67;;;2.47;;
21741;SDS011;11033;47.490;11.116;2022-08-19T12:33:55;2.70;;;2.50;;
21741;SDS011;11033;47.490;11.116;2022-08-19T12:36:20;3.13;;;2.83;;
21741;SDS011;11033;47.490;11.116;2022-08-19T12:38:46;2.75;;;2.55;;
21741;SDS011;11033;47.490;11.116;2022-08-19T12:41:13;2.70;;;2.50;;
21741;SDS011;11033;47.490;11.116;2022-08-19T12:43:40;2.80;;;2.60;;
21741;SDS011;11033;47.490;11.116;2022-08-19T12:46:06;3.00;;;2.70;;
21741;SDS011;11033;47.490;11.116;2022-08-19T12:48:32;3.40;;;3.10;;
21741;SDS011;11033;47.490;11.116;2022-08-19T12:50:58;3.00;;;2.63;;
21741;SDS011;11033;47.490;11.116;2022-08-19T12:53:23;2.40;;;2.30;;
21741;SDS011;11033;47.490;11.116;2022-08-19T12:55:56;2.35;;;2.22;;
21741;SDS011;11033;47.490;11.116;2022-08-19T12:58:22;2.42;;;2.22;;
21741;SDS011;11033;47.490;11.116;2022-08-19T13:00:48;2.50;;;2.38;;
21741;SDS011;11033;47.490;11.116;2022-08-19T13:03:14;3.10;;;2.80;;
21741;SDS011;11033;47.490;11.116;2022-08-19T13:05:40;2.13;;;2.03;;
21741;SDS011;11033;47.490;11.116;2022-08-19T13:08:05;2.33;;;1.98;;
21741;SDS011;11033;47.490;11.116;2022-08-19T13:10:32;3.05;;;2.20;;
21741;SDS011;11033;47.490;11.116;2022-08-19T13:12:59;1.95;;;1.85;;
21741;SDS011;11033;47.490;11.116;2022-08-19T13:15:26;2.13;;;2.03;;
21741;SDS011;11033;47.490;11.116;2022-08-19T13:17:55;1.85;;;1.75;;
21741;SDS011;11033;47.490;11.116;2022-08-19T13:20:20;1.67;;;1.58;;
21741;SDS011;11033;47.490;11.116;2022-08-19T13:22:47;2.85;;;2.03;;
21741;SDS011;11033;47.490;11.116;2022-08-19T13:25:13;1.88;;;1.77;;
21741;SDS011;11033;47.490;11.116;2022-08-19T13:27:42;8.07;;;1.70;;
21741;SDS011;11033;47.490;11.116;2022-08-19T13:30:08;1.67;;;1.55;;
21741;SDS011;11033;47.490;11.116;2022-08-19T13:32:55;1.90;;;1.80;;
21741;SDS011;11033;47.490;11.116;2022-08-19T13:35:37;1.90;;;1.80;;
21741;SDS011;11033;47.490;11.116;2022-08-19T13:38:02;2.13;;;1.50;;
21741;SDS011;11033;47.490;11.116;2022-08-19T13:40:29;2.58;;;1.35;;
21741;SDS011;11033;47.490;11.116;2022-08-19T13:42:58;2.08;;;1.63;;
21741;SDS011;11033;47.490;11.116;2022-08-19T13:45:26;2.05;;;1.13;;
21741;SDS011;11033;47.490;11.116;2022-08-19T13:47:53;1.85;;;1.02;;
21741;SDS011;11033;47.490;11.116;2022-08-19T13:50:22;0.82;;;0.82;;
21741;SDS011;11033;47.490;11.116;2022-08-19T13:52:53;1.67;;;1.13;;
21741;SDS011;11033;47.490;11.116;2022-08-19T13:55:19;1.75;;;1.65;;
21741;SDS011;11033;47.490;11.116;2022-08-19T13:57:44;1.58;;;1.38;;
21741;SDS011;11033;47.490;11.116;2022-08-19T14:00:14;1.38;;;1.23;;
21741;SDS011;11033;47.490;11.116;2022-08-19T14:02:45;2.50;;;1.17;;
21741;SDS011;11033;47.490;11.116;2022-08-19T14:05:14;4.57;;;2.35;;
21741;SDS011;11033;47.490;11.116;2022-08-19T14:07:41;4.10;;;2.20;;
21741;SDS011;11033;47.490;11.116;2022-08-19T14:10:07;3.67;;;1.70;;
21741;SDS011;11033;47.490;11.116;2022-08-19T14:12:34;11.10;;;2.20;;
21741;SDS011;11033;47.490;11.116;2022-08-19T14:15:01;3.10;;;1.60;;
21741;SDS011;11033;47.490;11.116;2022-08-19T14:17:29;2.05;;;1.35;;
21741;SDS011;11033;47.490;11.116;2022-08-19T14:19:57;3.78;;;1.63;;
21741;SDS011;11033;47.490;11.116;2022-08-19T14:22:24;1.37;;;1.27;;
21741;SDS011;11033;47.490;11.116;2022-08-19T14:24:49;3.17;;;1.10;;
21741;SDS011;11033;47.490;11.116;2022-08-19T14:27:15;3.88;;;1.73;;
21741;SDS011;11033;47.490;11.116;2022-08-19T14:29:40;2.97;;;1.02;;
21741;SDS011;11033;47.490;11.116;2022-08-19T14:32:05;2.93;;;1.00;;
21741;SDS011;11033;47.490;11.116;2022-08-19T14:34:31;1.65;;;1.00;;
21741;SDS011;11033;47.490;11.116;2022-08-19T14:36:57;1.58;;;0.95;;
21741;SDS011;11033;47.490;11.116;2022-08-19T14:39:22;1.17;;;1.08;;
21741;SDS011;11033;47.490;11.116;2022-08-19T14:41:47;0.90;;;0.90;;
21741;SDS011;11033;47.490;11.116;2022-08-19T14:44:13;1.13;;;1.02;;
21741;SDS011;11033;47.490;11.116;2022-08-19T14:46:38;1.90;;;0.80;;
21741;SDS011;11033;47.490;11.116;2022-08-19T14:49:05;4.68;;;1.33;;
21741;SDS011;11033;47.490;11.116;2022-08-19T14:51:31;3.90;;;1.55;;
21741;SDS011;11033;47.490;11.116;2022-08-19T14:53:57;2.33;;;1.40;;
21741;SDS011;11033;47.490;11.116;2022-08-19T14:56:24;4.82;;;1.67;;